sensor_id;sensor_type;location;lat;lon;timestamp;temperature;humidity
23475;DHT22;11910;52.086;21.066;2023-04-03T00:01:06;3.70;96.20
23475;DHT22;11910;52.086;21.066;2023-04-03T00:03:32;3.70;96.00
23475;DHT22;11910;52.086;21.066;2023-04-03T00:05:57;3.70;95.90
23475;DHT22;11910;52.086;21.066;2023-04-03T00:08:23;3.70;95.80
23475;DHT22;11910;52.086;21.066;2023-04-03T00:10:49;3.60;95.90
23475;DHT22;11910;52.086;21.066;2023-04-03T00:13:15;3.50;95.00
23475;DHT22;11910;52.086;21.066;2023-04-03T00:15:41;3.50;95.30
23475;DHT22;11910;52.086;21.066;2023-04-03T00:18:07;3.50;95.20
23475;DHT22;11910;52.086;21.066;2023-04-03T00:20:34;3.40;95.50
23475;DHT22;11910;52.086;21.066;2023-04-03T00:23:00;3.40;95.40
23475;DHT22;11910;52.086;21.066;2023-04-03T00:25:25;3.30;94.90
23475;DHT22;11910;52.086;21.066;2023-04-03T00:27:51;3.30;94.90
23475;DHT22;11910;52.086;21.066;2023-04-03T00:30:19;3.30;95.00
23475;DHT22;11910;52.086;21.066;2023-04-03T00:32:48;3.20;95.10
23475;DHT22;11910;52.086;21.066;2023-04-03T00:35:13;3.20;94.70
23475;DHT22;11910;52.086;21.066;2023-04-03T00:37:41;3.10;94.70
23475;DHT22;11910;52.086;21.066;2023-04-03T00:40:08;3.10;95.10
23475;DHT22;11910;52.086;21.066;2023-04-03T00:42:36;3.10;95.10
23475;DHT22;11910;52.086;21.066;2023-04-03T00:47:28;2.90;94.80
23475;DHT22;11910;52.086;21.066;2023-04-03T00:49:55;2.90;94.90
23475;DHT22;11910;52.086;21.066;2023-04-03T00:52:25;2.90;94.90
23475;DHT22;11910;52.086;21.066;2023-04-03T00:54:56;2.80;94.90
23475;DHT22;11910;52.086;21.066;2023-04-03T00:57:24;2.80;94.60
23475;DHT22;11910;52.086;21.066;2023-04-03T00:59:53;2.70;94.50
23475;DHT22;11910;52.086;21.066;2023-04-03T01:02:20;2.70;94.50
23475;DHT22;11910;52.086;21.066;2023-04-03T01:04:46;2.70;94.60
23475;DHT22;11910;52.086;21.066;2023-04-03T01:09:38;2.60;94.40
23475;DHT22;11910;52.086;21.066;2023-04-03T01:12:30;2.60;94.70
23475;DHT22;11910;52.086;21.066;2023-04-03T01:15:19;2.50;94.50
23475;DHT22;11910;52.086;21.066;2023-04-03T01:17:47;2.40;94.60
23475;DHT22;11910;52.086;21.066;2023-04-03T01:25:46;2.30;94.30
23475;DHT22;11910;52.086;21.066;2023-04-03T01:28:19;2.30;94.20
23475;DHT22;11910;52.086;21.066;2023-04-03T01:31:02;2.20;94.20
23475;DHT22;11910;52.086;21.066;2023-04-03T01:33:29;2.20;94.50
23475;DHT22;11910;52.086;21.066;2023-04-03T01:35:55;2.20;94.10
23475;DHT22;11910;52.086;21.066;2023-04-03T01:38:21;2.20;94.30
23475;DHT22;11910;52.086;21.066;2023-04-03T01:40:46;2.10;94.10
23475;DHT22;11910;52.086;21.066;2023-04-03T01:43:12;2.00;94.70
23475;DHT22;11910;52.086;21.066;2023-04-03T01:45:37;2.00;94.50
23475;DHT22;11910;52.086;21.066;2023-04-03T01:48:03;2.00;94.40
23475;DHT22;11910;52.086;21.066;2023-04-03T01:50:29;1.90;94.60
23475;DHT22;11910;52.086;21.066;2023-04-03T01:52:55;1.90;94.20
23475;DHT22;11910;52.086;21.066;2023-04-03T01:55:20;1.90;94.80
23475;DHT22;11910;52.086;21.066;2023-04-03T01:57:46;1.90;95.00
23475;DHT22;11910;52.086;21.066;2023-04-03T02:00:12;1.80;94.40
23475;DHT22;11910;52.086;21.066;2023-04-03T02:02:38;1.80;94.50
23475;DHT22;11910;52.086;21.066;2023-04-03T02:05:04;1.80;94.70
23475;DHT22;11910;52.086;21.066;2023-04-03T02:07:30;1.80;94.90
23475;DHT22;11910;52.086;21.066;2023-04-03T02:09:55;1.70;95.10
23475;DHT22;11910;52.086;21.066;2023-04-03T02:12:21;1.70;94.70
23475;DHT22;11910;52.086;21.066;2023-04-03T02:14:46;1.70;94.80
23475;DHT22;11910;52.086;21.066;2023-04-03T02:17:12;1.60;94.30
23475;DHT22;11910;52.086;21.066;2023-04-03T02:19:37;1.60;94.70
23475;DHT22;11910;52.086;21.066;2023-04-03T02:22:04;1.50;94.80
23475;DHT22;11910;52.086;21.066;2023-04-03T02:24:30;1.50;95.00
23475;DHT22;11910;52.086;21.066;2023-04-03T02:26:56;1.50;94.90
23475;DHT22;11910;52.086;21.066;2023-04-03T02:29:21;1.40;95.20
23475;DHT22;11910;52.086;21.066;2023-04-03T02:31:47;1.40;95.00
23475;DHT22;11910;52.086;21.066;2023-04-03T02:34:13;1.30;94.70
23475;DHT22;11910;52.086;21.066;2023-04-03T02:36:38;1.30;94.90
23475;DHT22;11910;52.086;21.066;2023-04-03T02:39:04;1.30;94.80
23475;DHT22;11910;52.086;21.066;2023-04-03T02:41:30;1.30;94.90
23475;DHT22;11910;52.086;21.066;2023-04-03T02:44:05;1.20;94.70
23475;DHT22;11910;52.086;21.066;2023-04-03T02:46:31;1.20;95.20
23475;DHT22;11910;52.086;21.066;2023-04-03T02:48:57;1.20;94.60
23475;DHT22;11910;52.086;21.066;2023-04-03T02:51:23;1.20;95.20
23475;DHT22;11910;52.086;21.066;2023-04-03T02:53:49;1.20;95.30
23475;DHT22;11910;52.086;21.066;2023-04-03T02:56:16;1.10;95.10
23475;DHT22;11910;52.086;21.066;2023-04-03T02:58:42;1.10;95.00
23475;DHT22;11910;52.086;21.066;2023-04-03T03:01:08;1.10;94.60
23475;DHT22;11910;52.086;21.066;2023-04-03T03:03:34;1.00;94.50
23475;DHT22;11910;52.086;21.066;2023-04-03T03:06:06;1.00;94.80
23475;DHT22;11910;52.086;21.066;2023-04-03T03:08:32;1.00;95.10
23475;DHT22;11910;52.086;21.066;2023-04-03T03:10:58;1.00;95.00
23475;DHT22;11910;52.086;21.066;2023-04-03T03:13:24;0.90;94.90
23475;DHT22;11910;52.086;21.066;2023-04-03T03:15:49;0.90;95.10
23475;DHT22;11910;52.086;21.066;2023-04-03T03:18:15;0.90;95.20
23475;DHT22;11910;52.086;21.066;2023-04-03T03:20:41;0.90;95.40
23475;DHT22;11910;52.086;21.066;2023-04-03T03:23:06;0.80;95.50
23475;DHT22;11910;52.086;21.066;2023-04-03T03:25:32;0.80;95.30
23475;DHT22;11910;52.086;21.066;2023-04-03T03:27:57;0.90;95.30
23475;DHT22;11910;52.086;21.066;2023-04-03T03:30:23;0.80;94.50
23475;DHT22;11910;52.086;21.066;2023-04-03T03:32:49;0.80;95.00
23475;DHT22;11910;52.086;21.066;2023-04-03T03:35:14;0.70;95.00
23475;DHT22;11910;52.086;21.066;2023-04-03T03:37:40;0.80;95.20
23475;DHT22;11910;52.086;21.066;2023-04-03T03:40:06;0.70;95.10
23475;DHT22;11910;52.086;21.066;2023-04-03T03:42:32;0.70;95.10
23475;DHT22;11910;52.086;21.066;2023-04-03T03:44:57;0.70;95.10
23475;DHT22;11910;52.086;21.066;2023-04-03T03:47:23;0.60;95.20
23475;DHT22;11910;52.086;21.066;2023-04-03T03:49:48;0.60;95.10
23475;DHT22;11910;52.086;21.066;2023-04-03T03:52:14;0.60;95.20
23475;DHT22;11910;52.086;21.066;2023-04-03T03:54:40;0.60;95.30
23475;DHT22;11910;52.086;21.066;2023-04-03T03:57:05;0.50;95.30
23475;DHT22;11910;52.086;21.066;2023-04-03T03:59:31;0.50;95.30
23475;DHT22;11910;52.086;21.066;2023-04-03T04:01:56;0.50;95.70
23475;DHT22;11910;52.086;21.066;2023-04-03T04:04:22;0.50;95.40
23475;DHT22;11910;52.086;21.066;2023-04-03T04:06:48;0.50;95.30
23475;DHT22;11910;52.086;21.066;2023-04-03T04:09:13;0.40;95.60
23475;DHT22;11910;52.086;21.066;2023-04-03T04:11:39;0.50;95.60
23475;DHT22;11910;52.086;21.066;2023-04-03T04:14:06;0.50;95.70
23475;DHT22;11910;52.086;21.066;2023-04-03T04:16:31;0.50;95.50
23475;DHT22;11910;52.086;21.066;2023-04-03T04:18:57;0.40;96.00
23475;DHT22;11910;52.086;21.066;2023-04-03T04:21:22;0.40;95.50
23475;DHT22;11910;52.086;21.066;2023-04-03T04:23:48;0.40;95.50
23475;DHT22;11910;52.086;21.066;2023-04-03T04:26:13;0.40;95.40
23475;DHT22;11910;52.086;21.066;2023-04-03T04:28:39;0.40;95.90
23475;DHT22;11910;52.086;21.066;2023-04-03T04:31:05;0.40;95.80
23475;DHT22;11910;52.086;21.066;2023-04-03T04:33:30;0.40;95.50
23475;DHT22;11910;52.086;21.066;2023-04-03T04:35:56;0.40;95.50
23475;DHT22;11910;52.086;21.066;2023-04-03T04:38:21;0.40;95.70
23475;DHT22;11910;52.086;21.066;2023-04-03T04:40:48;0.50;95.60
23475;DHT22;11910;52.086;21.066;2023-04-03T04:43:13;0.40;95.60
23475;DHT22;11910;52.086;21.066;2023-04-03T04:45:40;0.40;95.50
23475;DHT22;11910;52.086;21.066;2023-04-03T04:48:06;0.40;95.50
23475;DHT22;11910;52.086;21.066;2023-04-03T04:50:31;0.40;95.30
23475;DHT22;11910;52.086;21.066;2023-04-03T04:52:57;0.50;95.80
23475;DHT22;11910;52.086;21.066;2023-04-03T04:55:23;0.50;95.60
23475;DHT22;11910;52.086;21.066;2023-04-03T04:57:48;0.50;95.60
23475;DHT22;11910;52.086;21.066;2023-04-03T05:00:15;0.50;95.70
23475;DHT22;11910;52.086;21.066;2023-04-03T05:02:41;0.50;95.20
23475;DHT22;11910;52.086;21.066;2023-04-03T05:05:07;0.50;95.30
23475;DHT22;11910;52.086;21.066;2023-04-03T05:07:32;0.50;95.60
23475;DHT22;11910;52.086;21.066;2023-04-03T05:09:58;0.50;95.80
23475;DHT22;11910;52.086;21.066;2023-04-03T05:12:24;0.60;95.30
23475;DHT22;11910;52.086;21.066;2023-04-03T05:14:49;0.60;95.40
23475;DHT22;11910;52.086;21.066;2023-04-03T05:17:15;0.60;95.60
23475;DHT22;11910;52.086;21.066;2023-04-03T05:19:41;0.70;95.20
23475;DHT22;11910;52.086;21.066;2023-04-03T05:22:06;0.60;95.30
23475;DHT22;11910;52.086;21.066;2023-04-03T05:24:32;0.70;95.00
23475;DHT22;11910;52.086;21.066;2023-04-03T05:26:58;0.70;95.00
23475;DHT22;11910;52.086;21.066;2023-04-03T05:29:27;0.70;95.10
23475;DHT22;11910;52.086;21.066;2023-04-03T05:31:53;0.70;94.90
23475;DHT22;11910;52.086;21.066;2023-04-03T05:34:19;0.70;95.00
23475;DHT22;11910;52.086;21.066;2023-04-03T05:36:44;0.80;95.10
23475;DHT22;11910;52.086;21.066;2023-04-03T05:39:10;0.80;95.20
23475;DHT22;11910;52.086;21.066;2023-04-03T05:41:36;0.80;94.70
23475;DHT22;11910;52.086;21.066;2023-04-03T05:47:13;1.00;94.90
23475;DHT22;11910;52.086;21.066;2023-04-03T05:49:38;1.10;94.90
23475;DHT22;11910;52.086;21.066;2023-04-03T05:52:20;1.20;94.70
23475;DHT22;11910;52.086;21.066;2023-04-03T05:54:47;1.20;94.60
23475;DHT22;11910;52.086;21.066;2023-04-03T05:57:17;1.30;94.50
23475;DHT22;11910;52.086;21.066;2023-04-03T05:59:44;1.40;94.70
23475;DHT22;11910;52.086;21.066;2023-04-03T06:02:15;1.50;94.70
23475;DHT22;11910;52.086;21.066;2023-04-03T06:04:41;1.60;94.50
23475;DHT22;11910;52.086;21.066;2023-04-03T06:07:09;1.70;94.40
23475;DHT22;11910;52.086;21.066;2023-04-03T06:09:36;1.80;94.50
23475;DHT22;11910;52.086;21.066;2023-04-03T06:12:02;2.00;93.80
23475;DHT22;11910;52.086;21.066;2023-04-03T06:14:30;2.10;93.20
23475;DHT22;11910;52.086;21.066;2023-04-03T06:16:56;2.30;93.20
23475;DHT22;11910;52.086;21.066;2023-04-03T06:19:22;2.40;93.10
23475;DHT22;11910;52.086;21.066;2023-04-03T06:21:47;2.50;93.30
23475;DHT22;11910;52.086;21.066;2023-04-03T06:24:15;2.60;93.00
23475;DHT22;11910;52.086;21.066;2023-04-03T06:26:52;2.70;92.90
23475;DHT22;11910;52.086;21.066;2023-04-03T06:29:21;2.80;92.10
23475;DHT22;11910;52.086;21.066;2023-04-03T06:31:47;2.90;92.70
23475;DHT22;11910;52.086;21.066;2023-04-03T06:34:13;3.10;92.40
23475;DHT22;11910;52.086;21.066;2023-04-03T06:36:45;4.70;90.80
23475;DHT22;11910;52.086;21.066;2023-04-03T06:39:20;7.50;83.70
23475;DHT22;11910;52.086;21.066;2023-04-03T06:41:46;9.30;76.30
23475;DHT22;11910;52.086;21.066;2023-04-03T06:44:12;10.40;70.00
23475;DHT22;11910;52.086;21.066;2023-04-03T06:46:41;11.20;65.60
23475;DHT22;11910;52.086;21.066;2023-04-03T06:49:06;10.90;65.00
23475;DHT22;11910;52.086;21.066;2023-04-03T06:51:36;8.90;68.60
23475;DHT22;11910;52.086;21.066;2023-04-03T06:54:03;7.50;72.30
23475;DHT22;11910;52.086;21.066;2023-04-03T06:56:29;6.70;74.60
23475;DHT22;11910;52.086;21.066;2023-04-03T06:58:55;6.60;76.70
23475;DHT22;11910;52.086;21.066;2023-04-03T07:01:24;7.00;77.00
23475;DHT22;11910;52.086;21.066;2023-04-03T07:03:51;7.10;76.00
23475;DHT22;11910;52.086;21.066;2023-04-03T07:06:18;6.90;76.20
23475;DHT22;11910;52.086;21.066;2023-04-03T07:08:44;7.20;76.40
23475;DHT22;11910;52.086;21.066;2023-04-03T07:11:11;7.30;75.00
23475;DHT22;11910;52.086;21.066;2023-04-03T07:13:37;7.30;74.60
23475;DHT22;11910;52.086;21.066;2023-04-03T07:16:04;7.00;73.90
23475;DHT22;11910;52.086;21.066;2023-04-03T07:18:31;6.60;75.40
23475;DHT22;11910;52.086;21.066;2023-04-03T07:24:43;6.50;75.40
23475;DHT22;11910;52.086;21.066;2023-04-03T07:27:09;6.50;76.70
23475;DHT22;11910;52.086;21.066;2023-04-03T07:29:40;6.60;74.60
23475;DHT22;11910;52.086;21.066;2023-04-03T07:32:45;6.50;76.20
23475;DHT22;11910;52.086;21.066;2023-04-03T07:35:21;6.90;74.80
23475;DHT22;11910;52.086;21.066;2023-04-03T07:37:53;7.50;73.40
23475;DHT22;11910;52.086;21.066;2023-04-03T07:40:19;8.10;70.90
23475;DHT22;11910;52.086;21.066;2023-04-03T07:43:19;8.20;70.80
23475;DHT22;11910;52.086;21.066;2023-04-03T07:49:29;8.00;71.40
23475;DHT22;11910;52.086;21.066;2023-04-03T07:52:14;8.10;72.20
23475;DHT22;11910;52.086;21.066;2023-04-03T07:54:57;8.20;72.80
23475;DHT22;11910;52.086;21.066;2023-04-03T07:57:22;9.00;68.80
23475;DHT22;11910;52.086;21.066;2023-04-03T07:59:48;9.00;69.30
23475;DHT22;11910;52.086;21.066;2023-04-03T08:02:14;9.00;69.10
23475;DHT22;11910;52.086;21.066;2023-04-03T08:04:39;9.30;68.70
23475;DHT22;11910;52.086;21.066;2023-04-03T08:07:05;9.70;67.10
23475;DHT22;11910;52.086;21.066;2023-04-03T08:09:31;9.30;67.00
23475;DHT22;11910;52.086;21.066;2023-04-03T08:11:57;9.10;67.80
23475;DHT22;11910;52.086;21.066;2023-04-03T08:14:23;9.30;67.90
23475;DHT22;11910;52.086;21.066;2023-04-03T08:16:49;9.00;68.60
23475;DHT22;11910;52.086;21.066;2023-04-03T08:19:16;9.30;66.10
23475;DHT22;11910;52.086;21.066;2023-04-03T08:21:43;9.50;67.70
23475;DHT22;11910;52.086;21.066;2023-04-03T08:24:09;9.60;64.40
23475;DHT22;11910;52.086;21.066;2023-04-03T08:26:35;9.40;64.40
23475;DHT22;11910;52.086;21.066;2023-04-03T08:29:01;9.40;65.30
23475;DHT22;11910;52.086;21.066;2023-04-03T08:31:27;9.40;64.30
23475;DHT22;11910;52.086;21.066;2023-04-03T08:33:53;9.30;64.60
23475;DHT22;11910;52.086;21.066;2023-04-03T08:36:20;10.00;63.80
23475;DHT22;11910;52.086;21.066;2023-04-03T08:38:46;10.40;62.40
23475;DHT22;11910;52.086;21.066;2023-04-03T08:41:18;10.90;63.30
23475;DHT22;11910;52.086;21.066;2023-04-03T08:44:02;11.30;61.40
23475;DHT22;11910;52.086;21.066;2023-04-03T08:49:53;12.10;54.30
23475;DHT22;11910;52.086;21.066;2023-04-03T08:52:45;12.40;54.30
23475;DHT22;11910;52.086;21.066;2023-04-03T08:55:23;12.70;55.00
23475;DHT22;11910;52.086;21.066;2023-04-03T08:58:09;13.30;54.90
23475;DHT22;11910;52.086;21.066;2023-04-03T09:00:54;13.80;53.00
23475;DHT22;11910;52.086;21.066;2023-04-03T09:03:21;14.10;51.90
23475;DHT22;11910;52.086;21.066;2023-04-03T09:08:29;13.70;52.40
23475;DHT22;11910;52.086;21.066;2023-04-03T09:11:25;14.10;50.70
23475;DHT22;11910;52.086;21.066;2023-04-03T09:14:12;14.90;50.70
23475;DHT22;11910;52.086;21.066;2023-04-03T09:17:03;14.70;48.30
23475;DHT22;11910;52.086;21.066;2023-04-03T09:22:21;16.00;46.60
23475;DHT22;11910;52.086;21.066;2023-04-03T09:25:16;15.60;45.50
23475;DHT22;11910;52.086;21.066;2023-04-03T09:27:43;15.00;44.70
23475;DHT22;11910;52.086;21.066;2023-04-03T09:30:20;15.70;46.50
23475;DHT22;11910;52.086;21.066;2023-04-03T09:32:50;16.10;46.20
23475;DHT22;11910;52.086;21.066;2023-04-03T09:38:31;16.80;44.70
23475;DHT22;11910;52.086;21.066;2023-04-03T09:40:49;17.70;42.60
23475;DHT22;11910;52.086;21.066;2023-04-03T09:43:21;18.80;41.80
23475;DHT22;11910;52.086;21.066;2023-04-03T09:45:48;19.10;42.10
23475;DHT22;11910;52.086;21.066;2023-04-03T09:51:00;19.00;40.30
23475;DHT22;11910;52.086;21.066;2023-04-03T09:53:43;19.10;39.10
23475;DHT22;11910;52.086;21.066;2023-04-03T09:58:49;19.50;38.20
23475;DHT22;11910;52.086;21.066;2023-04-03T10:01:31;19.70;39.30
23475;DHT22;11910;52.086;21.066;2023-04-03T10:06:35;20.70;37.50
23475;DHT22;11910;52.086;21.066;2023-04-03T10:09:05;20.00;36.60
23475;DHT22;11910;52.086;21.066;2023-04-03T10:11:31;19.40;37.10
23475;DHT22;11910;52.086;21.066;2023-04-03T10:13:59;19.50;37.10
23475;DHT22;11910;52.086;21.066;2023-04-03T10:16:48;20.30;37.90
23475;DHT22;11910;52.086;21.066;2023-04-03T10:22:10;19.50;36.30
23475;DHT22;11910;52.086;21.066;2023-04-03T10:32:45;18.30;38.10
23475;DHT22;11910;52.086;21.066;2023-04-03T10:35:36;19.40;37.70
23475;DHT22;11910;52.086;21.066;2023-04-03T10:49:16;16.30;38.80
23475;DHT22;11910;52.086;21.066;2023-04-03T10:51:58;15.80;39.80
23475;DHT22;11910;52.086;21.066;2023-04-03T10:54:43;16.50;40.30
23475;DHT22;11910;52.086;21.066;2023-04-03T10:57:11;17.30;39.70
23475;DHT22;11910;52.086;21.066;2023-04-03T10:59:51;16.90;38.30
23475;DHT22;11910;52.086;21.066;2023-04-03T11:02:32;16.30;39.10
23475;DHT22;11910;52.086;21.066;2023-04-03T11:05:14;15.80;39.60
23475;DHT22;11910;52.086;21.066;2023-04-03T11:07:53;15.30;39.80
23475;DHT22;11910;52.086;21.066;2023-04-03T11:10:25;16.40;39.90
23475;DHT22;11910;52.086;21.066;2023-04-03T11:15:42;17.10;38.40
23475;DHT22;11910;52.086;21.066;2023-04-03T11:18:14;16.70;38.00
23475;DHT22;11910;52.086;21.066;2023-04-03T11:20:47;15.90;38.60
23475;DHT22;11910;52.086;21.066;2023-04-03T11:23:22;15.10;38.90
23475;DHT22;11910;52.086;21.066;2023-04-03T11:25:52;15.40;40.10
23475;DHT22;11910;52.086;21.066;2023-04-03T11:28:19;15.20;40.30
23475;DHT22;11910;52.086;21.066;2023-04-03T11:33:32;15.40;40.50
23475;DHT22;11910;52.086;21.066;2023-04-03T11:38:43;17.10;40.00
23475;DHT22;11910;52.086;21.066;2023-04-03T11:41:10;17.40;38.10
23475;DHT22;11910;52.086;21.066;2023-04-03T11:49:57;15.40;38.60
23475;DHT22;11910;52.086;21.066;2023-04-03T12:00:47;13.10;42.60
23475;DHT22;11910;52.086;21.066;2023-04-03T12:19:32;14.00;42.50
23475;DHT22;11910;52.086;21.066;2023-04-03T12:25:00;14.20;42.50
23475;DHT22;11910;52.086;21.066;2023-04-03T12:31:15;15.40;40.00
23475;DHT22;11910;52.086;21.066;2023-04-03T12:33:52;15.30;40.00
23475;DHT22;11910;52.086;21.066;2023-04-03T12:36:41;15.00;40.20
23475;DHT22;11910;52.086;21.066;2023-04-03T12:45:25;13.60;42.60
23475;DHT22;11910;52.086;21.066;2023-04-03T12:48:16;13.10;42.50
23475;DHT22;11910;52.086;21.066;2023-04-03T12:50:45;12.70;44.20
23475;DHT22;11910;52.086;21.066;2023-04-03T12:53:24;12.40;43.80
23475;DHT22;11910;52.086;21.066;2023-04-03T12:55:57;12.20;43.60
23475;DHT22;11910;52.086;21.066;2023-04-03T12:59:22;12.00;44.00
23475;DHT22;11910;52.086;21.066;2023-04-03T13:04:20;11.90;44.40
23475;DHT22;11910;52.086;21.066;2023-04-03T13:06:46;12.30;43.90
23475;DHT22;11910;52.086;21.066;2023-04-03T13:09:29;12.40;44.00
23475;DHT22;11910;52.086;21.066;2023-04-03T13:12:02;12.30;44.50
23475;DHT22;11910;52.086;21.066;2023-04-03T13:14:29;12.10;43.80
23475;DHT22;11910;52.086;21.066;2023-04-03T13:16:59;11.90;44.20
23475;DHT22;11910;52.086;21.066;2023-04-03T13:19:28;12.00;44.60
23475;DHT22;11910;52.086;21.066;2023-04-03T13:21:59;11.90;43.80
23475;DHT22;11910;52.086;21.066;2023-04-03T13:24:36;12.40;44.80
23475;DHT22;11910;52.086;21.066;2023-04-03T13:27:05;13.50;44.40
23475;DHT22;11910;52.086;21.066;2023-04-03T13:29:41;13.20;42.60
23475;DHT22;11910;52.086;21.066;2023-04-03T13:32:13;14.20;41.40
23475;DHT22;11910;52.086;21.066;2023-04-03T13:38:24;14.90;40.00
23475;DHT22;11910;52.086;21.066;2023-04-03T13:40:53;14.90;41.20
23475;DHT22;11910;52.086;21.066;2023-04-03T13:43:34;15.00;40.90
23475;DHT22;11910;52.086;21.066;2023-04-03T13:48:46;15.10;40.40
23475;DHT22;11910;52.086;21.066;2023-04-03T13:51:44;15.60;39.40
23475;DHT22;11910;52.086;21.066;2023-04-03T13:57:22;16.20;38.60
23475;DHT22;11910;52.086;21.066;2023-04-03T13:59:48;15.50;39.00
23475;DHT22;11910;52.086;21.066;2023-04-03T14:02:41;15.10;39.20
23475;DHT22;11910;52.086;21.066;2023-04-03T14:05:08;14.40;41.10
23475;DHT22;11910;52.086;21.066;2023-04-03T14:07:34;13.80;42.70
23475;DHT22;11910;52.086;21.066;2023-04-03T14:09:59;13.40;40.80
23475;DHT22;11910;52.086;21.066;2023-04-03T14:12:38;13.30;41.90
23475;DHT22;11910;52.086;21.066;2023-04-03T14:15:28;13.50;43.50
23475;DHT22;11910;52.086;21.066;2023-04-03T14:18:04;13.50;43.10
23475;DHT22;11910;52.086;21.066;2023-04-03T14:20:30;13.80;42.80
23475;DHT22;11910;52.086;21.066;2023-04-03T14:22:58;14.00;42.60
23475;DHT22;11910;52.086;21.066;2023-04-03T14:25:24;13.80;41.60
23475;DHT22;11910;52.086;21.066;2023-04-03T14:27:56;13.60;41.60
23475;DHT22;11910;52.086;21.066;2023-04-03T14:30:27;13.30;42.50
23475;DHT22;11910;52.086;21.066;2023-04-03T14:33:00;12.80;42.80
23475;DHT22;11910;52.086;21.066;2023-04-03T14:35:29;12.70;43.60
23475;DHT22;11910;52.086;21.066;2023-04-03T14:37:58;12.60;43.80
23475;DHT22;11910;52.086;21.066;2023-04-03T14:40:27;12.40;43.70
23475;DHT22;11910;52.086;21.066;2023-04-03T14:42:53;12.10;44.00
23475;DHT22;11910;52.086;21.066;2023-04-03T14:45:22;11.90;44.00
23475;DHT22;11910;52.086;21.066;2023-04-03T14:47:55;11.60;45.10
23475;DHT22;11910;52.086;21.066;2023-04-03T14:50:56;11.20;46.20
23475;DHT22;11910;52.086;21.066;2023-04-03T14:53:22;11.00;47.00
23475;DHT22;11910;52.086;21.066;2023-04-03T14:55:58;10.80;47.30
23475;DHT22;11910;52.086;21.066;2023-04-03T14:58:27;10.70;47.60
23475;DHT22;11910;52.086;21.066;2023-04-03T15:00:53;10.50;47.30
23475;DHT22;11910;52.086;21.066;2023-04-03T15:03:20;10.30;47.80
23475;DHT22;11910;52.086;21.066;2023-04-03T15:05:47;10.10;48.70
23475;DHT22;11910;52.086;21.066;2023-04-03T15:08:25;9.90;48.80
23475;DHT22;11910;52.086;21.066;2023-04-03T15:10:52;9.80;48.60
23475;DHT22;11910;52.086;21.066;2023-04-03T15:13:19;9.70;49.40
23475;DHT22;11910;52.086;21.066;2023-04-03T15:15:46;9.50;48.20
23475;DHT22;11910;52.086;21.066;2023-04-03T15:18:19;9.50;48.90
23475;DHT22;11910;52.086;21.066;2023-04-03T15:20:45;9.40;49.70
23475;DHT22;11910;52.086;21.066;2023-04-03T15:23:12;9.40;49.60
23475;DHT22;11910;52.086;21.066;2023-04-03T15:25:38;9.30;49.10
23475;DHT22;11910;52.086;21.066;2023-04-03T15:28:05;9.20;49.50
23475;DHT22;11910;52.086;21.066;2023-04-03T15:30:31;9.20;50.00
23475;DHT22;11910;52.086;21.066;2023-04-03T15:32:57;9.20;50.50
23475;DHT22;11910;52.086;21.066;2023-04-03T15:35:23;9.10;50.40
23475;DHT22;11910;52.086;21.066;2023-04-03T15:37:49;9.10;51.20
23475;DHT22;11910;52.086;21.066;2023-04-03T15:40:15;9.00;51.40
23475;DHT22;11910;52.086;21.066;2023-04-03T15:42:40;9.10;50.40
23475;DHT22;11910;52.086;21.066;2023-04-03T15:45:07;9.00;51.10
23475;DHT22;11910;52.086;21.066;2023-04-03T15:47:36;8.90;50.70
23475;DHT22;11910;52.086;21.066;2023-04-03T15:50:02;8.80;50.10
23475;DHT22;11910;52.086;21.066;2023-04-03T15:52:43;8.60;51.10
23475;DHT22;11910;52.086;21.066;2023-04-03T15:55:09;8.60;51.00
23475;DHT22;11910;52.086;21.066;2023-04-03T15:57:35;8.50;50.10
23475;DHT22;11910;52.086;21.066;2023-04-03T16:00:00;8.50;50.70
23475;DHT22;11910;52.086;21.066;2023-04-03T16:02:26;8.50;52.10
23475;DHT22;11910;52.086;21.066;2023-04-03T16:04:54;8.50;52.70
23475;DHT22;11910;52.086;21.066;2023-04-03T16:07:20;8.40;52.20
23475;DHT22;11910;52.086;21.066;2023-04-03T16:09:46;8.40;51.20
23475;DHT22;11910;52.086;21.066;2023-04-03T16:12:12;8.30;51.30
23475;DHT22;11910;52.086;21.066;2023-04-03T16:14:37;8.20;50.30
23475;DHT22;11910;52.086;21.066;2023-04-03T16:17:03;8.00;51.40
23475;DHT22;11910;52.086;21.066;2023-04-03T16:19:29;7.90;50.90
23475;DHT22;11910;52.086;21.066;2023-04-03T16:21:55;7.90;51.70
23475;DHT22;11910;52.086;21.066;2023-04-03T16:24:21;7.80;50.90
23475;DHT22;11910;52.086;21.066;2023-04-03T16:26:47;7.80;51.30
23475;DHT22;11910;52.086;21.066;2023-04-03T16:29:13;7.70;53.10
23475;DHT22;11910;52.086;21.066;2023-04-03T16:31:38;7.70;52.20
23475;DHT22;11910;52.086;21.066;2023-04-03T16:34:04;7.70;52.30
23475;DHT22;11910;52.086;21.066;2023-04-03T16:36:29;7.60;52.50
23475;DHT22;11910;52.086;21.066;2023-04-03T16:38:55;7.60;52.40
23475;DHT22;11910;52.086;21.066;2023-04-03T16:41:21;7.60;52.10
23475;DHT22;11910;52.086;21.066;2023-04-03T16:43:46;7.60;52.20
23475;DHT22;11910;52.086;21.066;2023-04-03T16:46:12;7.50;52.00
23475;DHT22;11910;52.086;21.066;2023-04-03T16:48:38;7.40;53.20
23475;DHT22;11910;52.086;21.066;2023-04-03T16:51:03;7.30;53.10
23475;DHT22;11910;52.086;21.066;2023-04-03T16:53:29;7.30;53.90
23475;DHT22;11910;52.086;21.066;2023-04-03T16:55:57;7.20;55.00
23475;DHT22;11910;52.086;21.066;2023-04-03T16:58:22;7.20;52.90
23475;DHT22;11910;52.086;21.066;2023-04-03T17:01:11;7.10;53.20
23475;DHT22;11910;52.086;21.066;2023-04-03T17:03:37;7.10;53.70
23475;DHT22;11910;52.086;21.066;2023-04-03T17:06:03;7.10;53.60
23475;DHT22;11910;52.086;21.066;2023-04-03T17:08:28;7.00;53.10
23475;DHT22;11910;52.086;21.066;2023-04-03T17:10:54;6.90;53.20
23475;DHT22;11910;52.086;21.066;2023-04-03T17:13:20;6.90;52.80
23475;DHT22;11910;52.086;21.066;2023-04-03T17:15:46;6.80;53.70
23475;DHT22;11910;52.086;21.066;2023-04-03T17:18:11;6.70;53.60
23475;DHT22;11910;52.086;21.066;2023-04-03T17:20:37;6.70;54.50
23475;DHT22;11910;52.086;21.066;2023-04-03T17:23:04;6.70;53.80
23475;DHT22;11910;52.086;21.066;2023-04-03T17:25:30;6.60;54.60
23475;DHT22;11910;52.086;21.066;2023-04-03T17:27:55;6.60;55.40
23475;DHT22;11910;52.086;21.066;2023-04-03T17:30:21;6.60;54.50
23475;DHT22;11910;52.086;21.066;2023-04-03T17:32:47;6.60;55.60
23475;DHT22;11910;52.086;21.066;2023-04-03T17:35:13;6.60;54.50
23475;DHT22;11910;52.086;21.066;2023-04-03T17:37:38;6.60;54.40
23475;DHT22;11910;52.086;21.066;2023-04-03T17:42:35;6.50;55.00
23475;DHT22;11910;52.086;21.066;2023-04-03T17:45:01;6.50;54.90
23475;DHT22;11910;52.086;21.066;2023-04-03T17:47:27;6.50;54.60
23475;DHT22;11910;52.086;21.066;2023-04-03T17:49:53;6.50;55.60